Nearby METAR Reports

 

KPDX - Portland, Oregon, USA
Distance from station: NE 9mi, 14km
Updated: Mon, 02-Aug-2021 4:53pm PDT
Few Clouds
Few Clouds
 Wind from NW
Wind: NW 12 mph , 19 km/h
Temperature: 91°F , 33°C
Heat Index: 93°F , 34°C
Dew Point: 64°F , 18°C
Humidity: 41%
Barometer: 29.97 inHg , 1014.9 hPa
Clouds: Few Clouds
Visibility: 10 miles , 16 km
Cloud details: Few Clouds 16000 ft
Few Clouds 18000 ft
2021/08/02 23:53 KPDX 022353Z 32010KT 10SM FEW160 FEW180 33/18 A2997 RMK AO2 SLP149 T03280178 10328 20217 56017
KTMK - Tillamook, Oregon, USA
Distance from station: N 9mi, 14km
Updated: Mon, 02-Aug-2021 5:15pm PDT
Clear
Clear
 Wind from WNW
Wind: WNW 9 mph , 15 km/h, Gust: 13 mph , 20 km/h
Temperature: 68°F , 20°C
Dew Point: 54°F , 12°C
Humidity: 60%
Barometer: 30.10 inHg , 1019.3 hPa
Clouds: Clear
Visibility: 10 miles , 16 km
2021/08/03 00:15 KTMK 030015Z AUTO 29008G11KT 10SM CLR 20/12 A3010 RMK AO2
 
KSLE - Salem, Oregon, USA
Distance from station: NNW 14mi, 23km
Updated: Mon, 02-Aug-2021 4:56pm PDT
Clear
Clear
 Wind from calm
Wind: Calm
Temperature: 95°F , 35°C
Dew Point: 61°F , 16°C
Humidity: 32%
Barometer: 29.97 inHg , 1014.9 hPa
Clouds: Clear
Visibility: 10 miles , 16 km
2021/08/02 23:56 KSLE 022356Z 00000KT 10SM CLR 35/16 A2997 RMK AO2 SLP146 T03500156 10350 20239 56017
KEUG - Eugene, Oregon, USA
Distance from station: ENE 12mi, 19km
Updated: Mon, 02-Aug-2021 4:54pm PDT
Mostly cloudy
Mostly cloudy
 Wind from NE
Wind: NE 7 mph , 11 km/h
Temperature: 93°F , 34°C
Dew Point: 59°F , 15°C
Humidity: 32%
Barometer: 30.00 inHg , 1015.9 hPa
Clouds: Mostly cloudy
Visibility: 10 miles , 16 km
Cloud details: Mostly cloudy 25000 ft
2021/08/02 23:54 KEUG 022354Z 04006KT 10SM BKN250 34/15 A3000 RMK AO2 SLP154 T03390150 10344 20244 56014
 
KONP - Newport, Oregon, USA
Distance from station: NNW 31mi, 50km
Updated: Mon, 02-Aug-2021 5:15pm PDT
Clear
Clear
 Wind from NNW
Wind: NNW 21 mph , 33 km/h, Gust: 29 mph , 46 km/h
Temperature: 59°F , 15°C
Dew Point: 52°F , 11°C
Humidity: 77%
Barometer: 30.14 inHg , 1020.7 hPa
Clouds: Clear
Visibility: 10 miles , 16 km
2021/08/03 00:15 KONP 030015Z AUTO 34018G25KT 10SM CLR 15/11 A3014 RMK AO2
K6S2 - Florence, Oregon, USA
Distance from station: NW 21mi, 34km
Updated: Mon, 02-Aug-2021 5:15pm PDT
Clear
Clear
 Wind from NNW
Wind: NNW 18 mph , 30 km/h, Gust: 31 mph , 50 km/h
Temperature: 59°F , 15°C
Dew Point: 52°F , 11°C
Humidity: 77%
Barometer: 30.09 inHg , 1019 hPa
Clouds: Clear
Visibility: 10 miles , 16 km
2021/08/03 00:15 K6S2 030015Z AUTO 33016G27KT 10SM CLR 15/11 A3009 RMK AO2 T01460112
 
KDLS - The Dalles, Oregon, USA
Distance from station: NW 30mi, 49km
Updated: Mon, 02-Aug-2021 4:53pm PDT
Clear
Clear
 Wind from calm
Wind: Calm
Temperature: 102°F , 39°C
Dew Point: 54°F , 12°C
Humidity: 20%
Barometer: 29.92 inHg , 1013.2 hPa
Clouds: Clear
Visibility: 10 miles , 16 km
2021/08/02 23:53 KDLS 022353Z AUTO 00000KT 10SM CLR 39/12 A2992 RMK AO2 SLP129 T03940117 10400 20289 58019
KRDM - Redmond, Oregon, USA
Distance from station: ESE 27mi, 43km
Updated: Mon, 02-Aug-2021 4:56pm PDT
Clear
Clear
 Wind from ENE
Wind: ENE 10 mph , 17 km/h
Temperature: 90°F , 32°C
Dew Point: 46°F , 8°C
Humidity: 22%
Barometer: 30.12 inHg , 1020 hPa
Clouds: Clear
Visibility: 10 miles , 16 km
2021/08/02 23:56 KRDM 022356Z 07009KT 10SM CLR 32/08 A3012 RMK AO2 SLP173 60000 T03220078 10350 20261 58006
 
KPDT - Pendleton, Oregon, USA
Distance from station: SSE 27mi, 44km
Updated: Mon, 02-Aug-2021 4:53pm PDT
Clear
Clear
 Wind from NW
Wind: NW 9 mph , 15 km/h
Temperature: 99°F , 37°C
Dew Point: 48°F , 9°C
Humidity: 18%
Barometer: 30.03 inHg , 1016.9 hPa
Clouds: Clear
Visibility: 10 miles , 16 km
2021/08/02 23:53 KPDT 022353Z 31008KT 10SM CLR 37/09 A3003 RMK AO2 SLP148 T03720089 10378 20311 56015
KGCD - John Day, Oregon, USA
Distance from station: WNW 31mi, 50km
Updated: Mon, 02-Aug-2021 5:15pm PDT
Nearby thunderstorm, Clear
Nearby thunderstorm, Clear
 Wind from W
Wind: W 7 mph , 11 km/h
Temperature: 90°F , 32°C
Dew Point: 37°F , 3°C
Humidity: 16%
Barometer: 30.17 inHg , 1021.7 hPa
Summary: Nearby Thunderstorm
Clouds: Clear
Visibility: 10 miles , 16 km
2021/08/03 00:15 KGCD 030015Z AUTO 26006KT 10SM VCTS CLR 32/03 A3017 RMK AO2 LTG DSNT S THRU W T03230026
 
KAST - Astoria, Oregon, USA
Distance from station: N 28mi, 44km
Updated: Mon, 02-Aug-2021 4:55pm PDT
Clear
Clear
 Wind from NW
Wind: NW 21 mph , 33 km/h, Gust: 29 mph , 46 km/h
Temperature: 66°F , 19°C
Dew Point: 55°F , 13°C
Humidity: 68%
Barometer: 30.09 inHg , 1019 hPa
Clouds: Clear
Visibility: 10 miles , 16 km
2021/08/02 23:55 KAST 022355Z AUTO 32018G25KT 10SM CLR 19/13 A3009 RMK AO2 SLP189 T01890133 10200 20161 56010
KSEA - Seattle, Washington, USA
Distance from station: NNE 31mi, 51km
Updated: Mon, 02-Aug-2021 4:53pm PDT
Partly cloudy
Partly cloudy
 Wind from N
Wind: N 13 mph , 20 km/h
Temperature: 84°F , 29°C
Dew Point: 55°F , 13°C
Humidity: 37%
Barometer: 30.08 inHg , 1018.6 hPa
Clouds: Partly cloudy
Visibility: 10 miles , 16 km
Cloud details: Partly cloudy 25000 ft
2021/08/02 23:53 KSEA 022353Z 35011KT 10SM SCT250 29/13 A3008 RMK AO2 SLP190 T02940128 10300 20200 56016